Ceres, Washington
Current Conditions -  °F | °C
As of 4:55 PM on Friday 19 Dec 2014 (Local Time) from KCLS Reporting Station
Overcast Overcast  
Wind Chill:   Ceiling: 5000
Heat Index:   Visibility: 10mi
Dew Point:   Wind: 6mph
Humidity: 82%   Direction: 190°S
Pressure: 29.95"   Gusts: NA
Location:  46.6561°N, 122.993°W
Report Text: KCLS 200055Z AUTO 19005KT 10SM BKN050 OVC060 09/06 A2995 RMK AO2
Loading
Personal Weather Stations






























Interactive Weather Map New forecast layout! Learn more

10-Day Weather Forecast

Advertisements
Track Severe Weather on mobile